createdAt,value
2023-03-04T00:01:26.600Z,66.43
2023-03-04T00:03:53.266Z,65.97
2023-03-04T00:06:19.945Z,65.72
2023-03-04T00:08:46.556Z,63.75
2023-03-04T00:11:13.415Z,57.72
2023-03-04T00:13:40.096Z,60.30
2023-03-04T00:16:07.007Z,60.75
2023-03-04T00:18:33.629Z,58.22
2023-03-04T00:21:00.260Z,54.25
2023-03-04T00:23:26.939Z,64.25
2023-03-04T00:25:53.544Z,56.45
2023-03-04T00:28:20.161Z,56.33
2023-03-04T00:30:46.924Z,55.63
2023-03-04T00:33:13.725Z,63.63
2023-03-04T00:35:41.221Z,60.30
2023-03-04T00:38:08.448Z,56.85
2023-03-04T00:40:36.105Z,53.42
2023-03-04T00:43:04.593Z,61.85
2023-03-04T00:45:31.366Z,57.85
2023-03-04T00:47:58.070Z,62.70
2023-03-04T00:50:24.708Z,48.83
2023-03-04T00:52:51.488Z,60.90
2023-03-04T00:55:18.240Z,54.63
2023-03-04T00:57:44.921Z,60.50
2023-03-04T01:00:12.318Z,54.22
2023-03-04T01:02:39.080Z,56.05
2023-03-04T01:05:06.467Z,56.50
2023-03-04T01:07:34.073Z,54.03
2023-03-04T01:10:00.998Z,56.92
2023-03-04T01:12:28.172Z,63.63
2023-03-04T01:14:54.823Z,60.00
2023-03-04T01:17:21.890Z,54.90
2023-03-04T01:19:48.592Z,58.13
2023-03-04T01:22:16.592Z,53.88
2023-03-04T01:24:43.266Z,65.05
2023-03-04T01:27:09.908Z,50.85
2023-03-04T01:29:36.553Z,61.30
2023-03-04T01:32:04.020Z,57.42
2023-03-04T01:34:31.156Z,58.65
2023-03-04T01:36:57.770Z,58.25
2023-03-04T01:39:24.440Z,58.05
2023-03-04T01:41:51.499Z,61.63
2023-03-04T01:44:18.220Z,57.75
2023-03-04T01:46:50.707Z,49.08
2023-03-04T01:49:17.668Z,54.45
2023-03-04T01:51:49.044Z,52.60
2023-03-04T01:54:16.720Z,44.60
2023-03-04T01:56:46.615Z,56.50
2023-03-04T01:59:16.182Z,57.10
2023-03-04T02:01:46.345Z,45.92
2023-03-04T02:04:14.889Z,44.75
2023-03-04T02:06:42.312Z,50.85
2023-03-04T02:09:09.842Z,58.15
2023-03-04T02:11:38.101Z,45.63
2023-03-04T02:14:05.902Z,48.25
2023-03-04T02:16:33.018Z,48.70
2023-03-04T02:19:00.387Z,48.83
2023-03-04T02:21:33.112Z,45.10
2023-03-04T02:24:23.884Z,64.00
2023-03-04T02:26:50.882Z,53.05
2023-03-04T02:29:18.505Z,53.63
2023-03-04T02:31:47.622Z,58.15
2023-03-04T02:34:23.945Z,66.65
2023-03-04T02:36:53.155Z,53.45
2023-03-04T02:39:20.023Z,56.53
2023-03-04T02:41:48.675Z,51.15
2023-03-04T02:44:17.486Z,53.55
2023-03-04T02:46:44.716Z,57.65
2023-03-04T02:49:11.391Z,58.25
2023-03-04T02:51:38.068Z,56.92
2023-03-04T02:54:04.834Z,52.60
2023-03-04T02:56:31.529Z,43.85
2023-03-04T02:58:58.167Z,44.28
2023-03-04T03:01:28.974Z,49.50
2023-03-04T03:03:55.996Z,45.42
2023-03-04T03:06:22.657Z,45.50
2023-03-04T03:08:49.903Z,47.38
2023-03-04T03:11:17.212Z,47.42
2023-03-04T03:13:44.672Z,51.47
2023-03-04T03:16:11.524Z,42.38
2023-03-04T03:18:38.368Z,33.08
2023-03-04T03:21:05.208Z,48.00
2023-03-04T03:23:31.809Z,40.00
2023-03-04T03:25:58.424Z,44.97
2023-03-04T03:28:27.792Z,44.67
2023-03-04T03:30:54.908Z,37.42
2023-03-04T03:33:21.688Z,40.38
2023-03-04T03:35:49.051Z,31.92
2023-03-04T03:38:15.795Z,36.58
2023-03-04T03:40:42.421Z,38.28
2023-03-04T03:43:09.285Z,43.67
2023-03-04T03:45:35.975Z,44.38
2023-03-04T03:48:02.780Z,31.95
2023-03-04T03:50:29.473Z,34.83
2023-03-04T03:52:56.377Z,32.38
2023-03-04T03:55:23.248Z,36.63
2023-03-04T03:57:50.035Z,31.40
2023-03-04T04:00:17.282Z,39.90
2023-03-04T04:02:44.017Z,40.03
2023-03-04T04:05:10.981Z,32.03
2023-03-04T04:07:37.922Z,32.45
2023-03-04T04:10:05.574Z,28.85
2023-03-04T04:12:32.405Z,35.03
2023-03-04T04:14:59.076Z,31.40
2023-03-04T04:17:25.880Z,28.65
2023-03-04T04:19:52.549Z,36.47
2023-03-04T04:22:20.703Z,23.77
2023-03-04T04:24:48.762Z,28.67
2023-03-04T04:27:15.557Z,37.33
2023-03-04T04:29:42.380Z,47.95
2023-03-04T04:32:09.121Z,28.90
2023-03-04T04:34:35.895Z,41.85
2023-03-04T04:37:02.516Z,28.98
2023-03-04T04:39:29.156Z,30.50
2023-03-04T04:41:55.784Z,38.65
2023-03-04T04:44:22.426Z,32.70
2023-03-04T04:46:50.157Z,39.10
2023-03-04T04:49:16.777Z,33.97
2023-03-04T04:51:43.960Z,30.83
2023-03-04T04:54:12.386Z,32.00
2023-03-04T04:56:39.016Z,47.55
2023-03-04T04:59:08.384Z,38.20
2023-03-04T05:01:35.547Z,32.38
2023-03-04T05:04:02.408Z,39.65
2023-03-04T05:06:29.055Z,46.70
2023-03-04T05:08:55.883Z,32.92
2023-03-04T05:11:22.742Z,29.85
2023-03-04T05:13:49.770Z,34.60
2023-03-04T05:16:17.761Z,37.13
2023-03-04T05:18:44.682Z,39.83
2023-03-04T05:21:11.421Z,31.63
2023-03-04T05:23:40.689Z,36.40
2023-03-04T05:26:09.940Z,39.67
2023-03-04T05:28:36.604Z,34.40
2023-03-04T05:31:03.639Z,27.85
2023-03-04T05:33:30.514Z,35.50
2023-03-04T05:35:57.743Z,41.30
2023-03-04T05:38:28.745Z,35.05
2023-03-04T05:40:58.600Z,34.38
2023-03-04T05:43:27.492Z,39.17
2023-03-04T05:45:55.253Z,22.80
2023-03-04T05:48:21.993Z,30.60
2023-03-04T05:50:54.300Z,30.60
2023-03-04T05:53:21.016Z,31.92
2023-03-04T05:55:48.042Z,29.45
2023-03-04T05:58:15.946Z,28.55
2023-03-04T06:00:42.760Z,29.35
2023-03-04T06:03:18.735Z,28.63
2023-03-04T06:05:45.873Z,30.80
2023-03-04T06:08:12.954Z,30.35
2023-03-04T06:10:41.142Z,25.38
2023-03-04T06:13:08.141Z,21.60
2023-03-04T06:15:34.868Z,30.45
2023-03-04T06:18:01.928Z,34.88
2023-03-04T06:20:28.782Z,32.30
2023-03-04T06:22:55.462Z,26.25
2023-03-04T06:25:22.894Z,32.10
2023-03-04T06:27:50.810Z,26.95
2023-03-04T06:30:18.522Z,27.88
2023-03-04T06:32:47.478Z,32.85
2023-03-04T06:35:16.136Z,22.65
2023-03-04T06:37:43.266Z,25.05
2023-03-04T06:40:11.588Z,26.42
2023-03-04T06:42:39.863Z,25.75
2023-03-04T06:45:07.400Z,24.33
2023-03-04T06:47:34.013Z,27.13
2023-03-04T06:50:00.616Z,23.02
2023-03-04T06:52:27.233Z,20.38
2023-03-04T06:54:53.873Z,24.15
2023-03-04T06:57:20.533Z,20.48
2023-03-04T06:59:47.156Z,22.10
2023-03-04T07:02:13.884Z,19.38
2023-03-04T07:04:40.551Z,27.55
2023-03-04T07:07:07.189Z,24.38
2023-03-04T07:09:33.819Z,26.45
2023-03-04T07:12:00.470Z,32.22
2023-03-04T07:14:27.801Z,25.73
2023-03-04T07:16:54.852Z,32.72
2023-03-04T07:19:22.103Z,31.40
2023-03-04T07:21:48.822Z,25.90
2023-03-04T07:24:15.545Z,29.15
2023-03-04T07:26:42.584Z,35.42
2023-03-04T07:29:09.345Z,22.95
2023-03-04T07:31:36.791Z,25.75
2023-03-04T07:34:06.140Z,21.85
2023-03-04T07:36:35.596Z,27.73
2023-03-04T07:39:03.514Z,21.02
2023-03-04T07:41:30.851Z,30.25
2023-03-04T07:43:58.565Z,27.02
2023-03-04T07:46:25.572Z,21.52
2023-03-04T07:48:52.244Z,23.23
2023-03-04T07:51:24.300Z,22.90
2023-03-04T07:53:57.489Z,24.05
2023-03-04T07:56:27.539Z,24.67
2023-03-04T07:58:54.358Z,29.48
2023-03-04T08:01:27.229Z,25.88
2023-03-04T08:03:53.966Z,23.60
2023-03-04T08:06:21.804Z,22.55
2023-03-04T08:08:49.132Z,20.10
2023-03-04T08:11:20.115Z,22.85
2023-03-04T08:13:47.382Z,26.60
2023-03-04T08:16:15.971Z,24.20
2023-03-04T08:18:44.357Z,19.00
2023-03-04T08:21:12.515Z,22.90
2023-03-04T08:23:40.715Z,31.10
2023-03-04T08:26:09.954Z,18.70
2023-03-04T08:28:37.246Z,22.10
2023-03-04T08:31:04.067Z,19.45
2023-03-04T08:33:31.899Z,29.65
2023-03-04T08:35:59.186Z,29.02
2023-03-04T08:38:26.797Z,28.42
2023-03-04T08:40:57.343Z,28.73
2023-03-04T08:43:25.844Z,24.17
2023-03-04T08:45:54.203Z,29.35
2023-03-04T08:48:21.722Z,21.42
2023-03-04T08:50:49.358Z,17.92
2023-03-04T08:53:17.197Z,24.50
2023-03-04T08:55:44.833Z,23.05
2023-03-04T08:58:11.588Z,23.10
2023-03-04T09:00:40.861Z,17.20
2023-03-04T09:03:07.532Z,28.05
2023-03-04T09:05:34.286Z,28.80
2023-03-04T09:08:00.873Z,37.90
2023-03-04T09:10:27.764Z,26.10
2023-03-04T09:12:54.587Z,33.60
2023-03-04T09:15:21.251Z,29.60
2023-03-04T09:17:47.984Z,26.77
2023-03-04T09:20:14.784Z,21.13
2023-03-04T09:22:42.959Z,27.55
2023-03-04T09:25:13.457Z,29.40
2023-03-04T09:27:40.471Z,40.17
2023-03-04T09:30:08.578Z,25.35
2023-03-04T09:32:35.296Z,26.17
2023-03-04T09:35:01.922Z,30.33
2023-03-04T09:37:28.576Z,23.80
2023-03-04T09:39:55.285Z,17.13
2023-03-04T09:42:36.059Z,22.20
2023-03-04T09:45:05.476Z,23.58
2023-03-04T09:47:35.337Z,22.95
2023-03-04T09:50:06.735Z,19.77
2023-03-04T09:53:02.216Z,30.38
2023-03-04T09:55:37.107Z,28.58
2023-03-04T10:00:52.388Z,24.30
2023-03-04T10:03:23.447Z,27.73
2023-03-04T10:05:55.473Z,21.05
2023-03-04T10:08:34.917Z,21.00
2023-03-04T10:11:04.904Z,20.45
2023-03-04T10:14:11.789Z,25.65
2023-03-04T10:17:02.327Z,28.67
2023-03-04T10:19:39.639Z,28.73
2023-03-04T10:22:25.953Z,32.63
2023-03-04T10:24:56.697Z,32.22
2023-03-04T10:27:24.683Z,28.90
2023-03-04T10:29:51.512Z,23.75
2023-03-04T10:32:20.395Z,19.10
2023-03-04T10:34:47.711Z,21.73
2023-03-04T10:37:14.539Z,20.90
2023-03-04T10:39:49.697Z,19.60
2023-03-04T10:42:16.420Z,20.45
2023-03-04T10:44:58.340Z,22.05
2023-03-04T10:47:28.496Z,20.85
2023-03-04T10:50:01.017Z,16.52
2023-03-04T10:52:36.813Z,19.98
2023-03-04T10:55:16.259Z,21.42
2023-03-04T10:57:48.254Z,14.20
2023-03-04T11:00:17.724Z,16.30
2023-03-04T11:02:49.034Z,17.30
2023-03-04T11:05:20.249Z,20.95
2023-03-04T11:07:56.711Z,14.40
2023-03-04T11:10:36.184Z,15.25
2023-03-04T11:13:12.291Z,14.15
2023-03-04T11:15:52.623Z,8.20
2023-03-04T11:18:26.995Z,17.10
2023-03-04T11:20:55.113Z,9.30
2023-03-04T11:23:32.351Z,12.57
2023-03-04T11:26:03.239Z,16.48
2023-03-04T11:28:44.176Z,21.75
2023-03-04T11:31:18.428Z,17.40
2023-03-04T11:33:55.497Z,17.73
2023-03-04T11:36:40.544Z,20.30
2023-03-04T11:39:21.941Z,14.43
2023-03-04T11:42:05.069Z,18.20
2023-03-04T11:44:31.739Z,19.05
2023-03-04T11:47:27.326Z,17.35
2023-03-04T11:50:18.967Z,25.83
2023-03-04T11:52:54.439Z,25.75
2023-03-04T11:55:37.791Z,21.17
2023-03-04T11:58:32.268Z,22.00
2023-03-04T12:01:23.384Z,17.08
2023-03-04T12:03:56.056Z,18.33
2023-03-04T12:06:32.168Z,18.42
2023-03-04T12:09:03.583Z,20.08
2023-03-04T12:11:33.243Z,13.95
2023-03-04T12:14:21.636Z,15.25
2023-03-04T12:17:00.024Z,13.02
2023-03-04T12:19:54.995Z,12.40
2023-03-04T12:22:24.606Z,18.77
2023-03-04T12:25:24.425Z,17.23
2023-03-04T12:27:54.547Z,16.48
2023-03-04T12:30:33.049Z,15.80
2023-03-04T12:33:44.779Z,15.93
2023-03-04T12:36:18.301Z,15.85
2023-03-04T12:39:06.929Z,13.93
2023-03-04T12:41:51.890Z,10.13
2023-03-04T12:44:20.936Z,17.05
2023-03-04T12:47:25.382Z,10.02
2023-03-04T12:49:59.964Z,12.25
2023-03-04T12:53:01.736Z,22.83
2023-03-04T12:55:44.002Z,9.48
2023-03-04T12:58:23.788Z,17.00
2023-03-04T13:01:03.706Z,16.33
2023-03-04T13:03:47.779Z,14.70
2023-03-04T13:06:24.019Z,21.08
2023-03-04T13:09:00.101Z,19.73
2023-03-04T13:11:26.921Z,17.58
2023-03-04T13:14:17.062Z,12.23
2023-03-04T13:16:49.160Z,11.60
2023-03-04T13:19:46.198Z,12.25
2023-03-04T13:22:34.877Z,11.23
2023-03-04T13:25:29.716Z,14.25
2023-03-04T13:28:05.260Z,11.25
2023-03-04T13:30:31.953Z,8.43
2023-03-04T13:33:10.908Z,14.45
2023-03-04T13:35:49.907Z,13.25
2023-03-04T13:38:32.308Z,15.27
2023-03-04T13:41:20.842Z,17.38
2023-03-04T13:43:52.801Z,9.65
2023-03-04T13:46:19.534Z,11.07
2023-03-04T13:48:52.453Z,13.63
2023-03-04T13:51:30.456Z,18.20
2023-03-04T13:54:00.593Z,10.82
2023-03-04T13:56:41.435Z,12.15
2023-03-04T13:59:08.061Z,18.13
2023-03-04T14:01:52.411Z,16.40
2023-03-04T14:04:37.249Z,18.17
2023-03-04T14:07:19.925Z,20.00
2023-03-04T14:10:01.696Z,19.60
2023-03-04T14:12:31.125Z,22.30
2023-03-04T14:15:01.196Z,21.77
2023-03-04T14:17:36.429Z,19.48
2023-03-04T14:20:05.245Z,18.77
2023-03-04T14:22:41.391Z,20.67
2023-03-04T14:25:25.644Z,24.23
2023-03-04T14:28:13.458Z,20.33
2023-03-04T14:30:43.973Z,23.48
2023-03-04T14:33:18.527Z,23.05
2023-03-04T14:35:52.166Z,20.77
2023-03-04T14:38:32.594Z,20.05
2023-03-04T14:41:21.449Z,19.42
2023-03-04T14:43:58.746Z,23.15
2023-03-04T14:46:36.748Z,17.02
2023-03-04T14:49:04.312Z,22.05
2023-03-04T14:51:45.908Z,19.08
2023-03-04T14:54:35.261Z,16.15
2023-03-04T14:57:25.881Z,15.02
2023-03-04T14:59:54.025Z,14.18
2023-03-04T15:02:31.578Z,18.60
2023-03-04T15:05:01.525Z,14.32
2023-03-04T15:07:36.285Z,16.55
2023-03-04T15:10:08.202Z,15.50
2023-03-04T15:12:36.438Z,18.75
2023-03-04T15:15:24.741Z,19.42
2023-03-04T15:18:21.722Z,16.63
2023-03-04T15:20:54.405Z,17.23
2023-03-04T15:23:21.132Z,19.30
2023-03-04T15:25:55.434Z,18.27
2023-03-04T15:28:23.124Z,21.35
2023-03-04T15:30:50.427Z,19.17
2023-03-04T15:33:18.302Z,21.15
2023-03-04T15:35:54.832Z,22.88
2023-03-04T15:40:50.057Z,22.20
2023-03-04T15:43:21.501Z,23.95
2023-03-04T15:45:49.621Z,22.73
2023-03-04T15:48:18.148Z,21.55
2023-03-04T15:51:02.546Z,21.17
2023-03-04T15:53:36.864Z,20.13
2023-03-04T15:56:07.109Z,23.02
2023-03-04T15:58:35.249Z,22.30
2023-03-04T16:01:02.334Z,21.70
2023-03-04T16:03:29.133Z,22.27
2023-03-04T16:05:56.905Z,21.50
2023-03-04T16:08:25.077Z,22.15
2023-03-04T16:10:52.881Z,15.98
2023-03-04T16:13:22.217Z,14.40
2023-03-04T16:15:50.083Z,11.48
2023-03-04T16:18:17.310Z,16.70
2023-03-04T16:20:47.439Z,16.15
2023-03-04T16:23:18.844Z,14.25
2023-03-04T16:25:47.802Z,14.07
2023-03-04T16:28:15.116Z,18.10
2023-03-04T16:30:42.346Z,13.63
2023-03-04T16:33:13.775Z,11.65
2023-03-04T16:35:41.022Z,13.95
2023-03-04T16:38:27.876Z,23.52
2023-03-04T16:40:56.087Z,20.33
2023-03-04T16:43:23.348Z,14.50
2023-03-04T16:45:50.190Z,13.50
2023-03-04T16:48:17.277Z,12.95
2023-03-04T16:50:44.428Z,17.95
2023-03-04T16:53:29.507Z,13.23
2023-03-04T16:56:00.049Z,16.80
2023-03-04T16:58:27.189Z,14.73
2023-03-04T17:00:54.657Z,21.67
2023-03-04T17:03:21.750Z,14.05
2023-03-04T17:05:48.477Z,13.73
2023-03-04T17:08:15.145Z,13.57
2023-03-04T17:10:42.079Z,10.55
2023-03-04T17:13:08.766Z,11.65
2023-03-04T17:15:35.395Z,10.70
2023-03-04T17:18:02.116Z,8.18
2023-03-04T17:20:28.831Z,7.45
2023-03-04T17:22:55.517Z,13.35
2023-03-04T17:25:22.149Z,13.48
2023-03-04T17:27:48.795Z,7.97
2023-03-04T17:30:15.708Z,13.98
2023-03-04T17:32:42.449Z,20.50
2023-03-04T17:35:10.147Z,9.30
2023-03-04T17:37:37.193Z,9.68
2023-03-04T17:40:06.984Z,10.57
2023-03-04T17:42:33.719Z,11.77
2023-03-04T17:45:00.776Z,12.73
2023-03-04T17:47:27.375Z,10.07
2023-03-04T17:49:54.094Z,15.93
2023-03-04T17:52:21.418Z,11.05
2023-03-04T17:54:48.172Z,10.40
2023-03-04T17:57:14.916Z,9.80
2023-03-04T17:59:41.638Z,11.93
2023-03-04T18:02:16.546Z,11.50
2023-03-04T18:07:12.099Z,16.40
2023-03-04T18:09:39.713Z,11.50
2023-03-04T18:12:06.701Z,10.13
2023-03-04T18:14:33.422Z,18.73
2023-03-04T18:17:00.107Z,16.67
2023-03-04T18:19:26.796Z,14.20
2023-03-04T18:21:53.477Z,12.95
2023-03-04T18:24:20.185Z,16.83
2023-03-04T18:26:46.896Z,17.85
2023-03-04T18:29:13.635Z,16.88
2023-03-04T18:31:40.394Z,19.70
2023-03-04T18:34:07.455Z,14.80
2023-03-04T18:36:34.212Z,23.58
2023-03-04T18:39:02.196Z,15.43
2023-03-04T18:41:29.055Z,11.05
2023-03-04T18:43:55.735Z,15.82
2023-03-04T18:46:31.459Z,11.80
2023-03-04T18:49:04.764Z,25.30
2023-03-04T18:51:31.915Z,16.30
2023-03-04T18:53:59.111Z,17.67
2023-03-04T18:56:52.160Z,17.52
2023-03-04T18:59:22.997Z,12.20
2023-03-04T19:01:52.980Z,13.98
2023-03-04T19:04:23.142Z,13.63
2023-03-04T19:06:49.969Z,21.05
2023-03-04T19:09:16.669Z,16.90
2023-03-04T19:11:43.379Z,13.82
2023-03-04T19:14:11.550Z,12.20
2023-03-04T19:16:38.709Z,11.20
2023-03-04T19:19:05.651Z,12.75
2023-03-04T19:21:32.507Z,16.60
2023-03-04T19:23:59.116Z,13.13
2023-03-04T19:26:25.780Z,12.10
2023-03-04T19:28:52.577Z,14.60
2023-03-04T19:31:19.211Z,17.13
2023-03-04T19:33:45.826Z,17.05
2023-03-04T19:36:12.568Z,12.63
2023-03-04T19:38:39.283Z,12.10
2023-03-04T19:41:14.818Z,18.30
2023-03-04T19:43:42.001Z,15.85
2023-03-04T19:46:10.016Z,15.45
2023-03-04T19:48:38.013Z,10.88
2023-03-04T19:51:23.521Z,14.23
2023-03-04T19:53:53.333Z,19.67
2023-03-04T19:56:21.154Z,17.70
2023-03-04T19:58:48.350Z,14.60
2023-03-04T20:01:27.513Z,17.40
2023-03-04T20:03:59.879Z,20.67
2023-03-04T20:06:27.450Z,18.15
2023-03-04T20:08:59.136Z,12.88
2023-03-04T20:11:27.859Z,17.30
2023-03-04T20:13:54.957Z,12.35
2023-03-04T20:16:21.634Z,17.25
2023-03-04T20:18:48.306Z,21.80
2023-03-04T20:21:15.102Z,12.07
2023-03-04T20:23:41.873Z,15.18
2023-03-04T20:26:08.720Z,21.95
2023-03-04T20:28:49.064Z,23.27
2023-03-04T20:31:31.345Z,23.30
2023-03-04T20:33:59.801Z,16.92
2023-03-04T20:36:28.496Z,25.15
2023-03-04T20:39:02.107Z,14.48
2023-03-04T20:41:30.136Z,19.50
2023-03-04T20:43:57.360Z,15.95
2023-03-04T20:46:41.245Z,12.13
2023-03-04T20:49:13.706Z,22.05
2023-03-04T20:51:40.604Z,21.05
2023-03-04T20:54:07.896Z,15.30
2023-03-04T20:56:35.197Z,15.40
2023-03-04T20:59:04.251Z,16.27
2023-03-04T21:01:31.605Z,13.70
2023-03-04T21:03:59.981Z,16.30
2023-03-04T21:06:29.012Z,12.38
2023-03-04T21:08:57.098Z,11.35
2023-03-04T21:11:24.282Z,17.33
2023-03-04T21:13:57.565Z,15.27
2023-03-04T21:16:27.321Z,13.15
2023-03-04T21:18:54.012Z,15.85
2023-03-04T21:21:23.401Z,20.48
2023-03-04T21:23:52.621Z,13.90
2023-03-04T21:26:19.938Z,19.88
2023-03-04T21:28:48.519Z,12.30
2023-03-04T21:31:31.128Z,13.02
2023-03-04T21:34:00.832Z,17.90
2023-03-04T21:36:27.667Z,19.10
2023-03-04T21:38:54.489Z,17.23
2023-03-04T21:41:24.126Z,22.05
2023-03-04T21:43:51.747Z,14.40
2023-03-04T21:46:19.074Z,20.85
2023-03-04T21:48:47.640Z,20.45
2023-03-04T21:51:15.636Z,23.45
2023-03-04T21:53:43.320Z,18.23
2023-03-04T21:56:11.931Z,18.30
2023-03-04T21:58:42.178Z,21.15
2023-03-04T22:01:10.730Z,13.65
2023-03-04T22:03:37.540Z,12.40
2023-03-04T22:06:06.452Z,14.57
2023-03-04T22:08:33.200Z,20.85
2023-03-04T22:11:06.757Z,13.50
2023-03-04T22:13:34.121Z,19.85
2023-03-04T22:16:01.957Z,16.75
2023-03-04T22:18:28.822Z,17.95
2023-03-04T22:21:04.410Z,17.00
2023-03-04T22:23:31.850Z,13.35
2023-03-04T22:26:02.881Z,16.88
2023-03-04T22:28:30.560Z,11.25
2023-03-04T22:30:57.299Z,13.05
2023-03-04T22:33:24.944Z,19.38
2023-03-04T22:35:52.498Z,15.15
2023-03-04T22:38:20.287Z,16.02
2023-03-04T22:40:48.699Z,19.70
2023-03-04T22:43:15.336Z,15.98
2023-03-04T22:45:42.065Z,11.77
2023-03-04T22:48:08.728Z,12.60
2023-03-04T22:50:36.042Z,16.80
2023-03-04T22:53:04.692Z,11.43
2023-03-04T22:55:31.307Z,18.65
2023-03-04T22:57:57.996Z,16.23
2023-03-04T23:00:26.977Z,19.70
2023-03-04T23:02:54.578Z,20.08
2023-03-04T23:05:21.561Z,24.33
2023-03-04T23:07:49.683Z,18.23
2023-03-04T23:10:19.859Z,13.73
2023-03-04T23:12:46.847Z,16.10
2023-03-04T23:15:16.356Z,10.43
2023-03-04T23:17:43.966Z,15.15
2023-03-04T23:20:13.553Z,14.77
2023-03-04T23:22:40.211Z,17.83
2023-03-04T23:25:07.741Z,10.73
2023-03-04T23:27:34.404Z,11.10
2023-03-04T23:30:01.083Z,9.40
2023-03-04T23:32:27.782Z,16.15
2023-03-04T23:34:56.002Z,20.77
2023-03-04T23:37:23.096Z,17.70
2023-03-04T23:39:50.203Z,21.75
2023-03-04T23:42:16.897Z,25.25
2023-03-04T23:44:43.716Z,21.15
2023-03-04T23:47:10.582Z,26.55
2023-03-04T23:49:37.293Z,28.10
2023-03-04T23:52:04.341Z,20.15
2023-03-04T23:54:31.211Z,21.70
2023-03-04T23:57:00.448Z,25.00
2023-03-04T23:59:28.664Z,20.80
